createdAt,value
2023-05-02T00:01:35.917Z,81.84
2023-05-02T00:04:10.409Z,82.28
2023-05-02T00:06:42.956Z,82.50
2023-05-02T00:09:12.570Z,82.17
2023-05-02T00:14:17.050Z,81.96
2023-05-02T00:16:46.339Z,81.88
2023-05-02T00:19:15.648Z,81.82
2023-05-02T00:21:49.878Z,82.56
2023-05-02T00:24:26.612Z,82.22
2023-05-02T00:26:56.068Z,82.29
2023-05-02T00:29:25.342Z,82.12
2023-05-02T00:32:00.599Z,82.35
2023-05-02T00:34:36.570Z,82.23
2023-05-02T00:37:08.052Z,82.76
2023-05-02T00:39:37.680Z,82.56
2023-05-02T00:42:12.712Z,82.62
2023-05-02T00:44:53.739Z,82.56
2023-05-02T00:47:23.188Z,82.90
2023-05-02T00:49:52.642Z,82.60
2023-05-02T00:52:24.313Z,82.66
2023-05-02T00:54:53.964Z,82.47
2023-05-02T00:57:23.199Z,82.89
2023-05-02T00:59:53.409Z,83.01
2023-05-02T01:02:32.899Z,83.28
2023-05-02T01:08:02.668Z,83.00
2023-05-02T01:10:43.851Z,83.04
2023-05-02T01:13:19.549Z,83.45
2023-05-02T01:15:56.354Z,83.67
2023-05-02T01:18:29.169Z,84.09
2023-05-02T01:21:07.500Z,83.94
2023-05-02T01:23:48.180Z,84.05
2023-05-02T01:29:09.129Z,84.38
2023-05-02T01:31:41.628Z,84.62
2023-05-02T01:34:12.969Z,84.92
2023-05-02T01:36:46.378Z,85.14
2023-05-02T01:39:20.392Z,84.42
2023-05-02T01:42:04.311Z,85.06
2023-05-02T01:44:37.768Z,85.09
2023-05-02T01:49:45.683Z,85.59
2023-05-02T01:52:17.582Z,85.33
2023-05-02T01:57:22.078Z,85.02
2023-05-02T01:59:55.244Z,85.06
2023-05-02T02:02:31.013Z,85.29
2023-05-02T02:05:02.838Z,85.18
2023-05-02T02:07:32.737Z,85.34
2023-05-02T02:10:02.931Z,85.80
2023-05-02T02:12:42.235Z,85.74
2023-05-02T02:15:21.910Z,86.21
2023-05-02T02:18:04.870Z,85.47
2023-05-02T02:20:35.290Z,86.01
2023-05-02T02:23:09.223Z,85.75
2023-05-02T02:25:40.057Z,85.88
2023-05-02T02:28:14.780Z,86.06
2023-05-02T02:30:46.232Z,85.95
2023-05-02T02:33:27.079Z,86.30
2023-05-02T02:36:00.708Z,86.10
2023-05-02T02:38:39.032Z,85.44
2023-05-02T02:41:15.517Z,85.04
2023-05-02T02:43:55.839Z,85.06
2023-05-02T02:46:48.828Z,85.08
2023-05-02T02:49:30.064Z,85.18
2023-05-02T02:52:07.875Z,85.05
2023-05-02T02:54:48.262Z,84.55
2023-05-02T02:57:28.959Z,84.67
2023-05-02T03:00:05.928Z,84.17
2023-05-02T03:02:42.187Z,83.80
2023-05-02T03:05:18.621Z,83.83
2023-05-02T03:07:47.940Z,83.68
2023-05-02T03:10:24.405Z,83.53
2023-05-02T03:12:55.310Z,83.28
2023-05-02T03:15:36.240Z,83.20
2023-05-02T03:18:19.221Z,82.63
2023-05-02T03:20:48.741Z,82.23
2023-05-02T03:23:17.935Z,82.56
2023-05-02T03:31:09.352Z,82.04
2023-05-02T03:33:43.799Z,82.02
2023-05-02T03:36:13.195Z,81.59
2023-05-02T03:38:42.676Z,81.27
2023-05-02T03:41:20.667Z,80.86
2023-05-02T03:43:56.632Z,80.80
2023-05-02T03:49:16.929Z,80.09
2023-05-02T03:51:48.451Z,79.64
2023-05-02T03:54:22.737Z,79.02
2023-05-02T03:56:52.595Z,78.83
2023-05-02T03:59:27.919Z,77.91
2023-05-02T04:01:59.182Z,77.33
2023-05-02T04:04:41.064Z,76.67
2023-05-02T04:07:17.759Z,76.39
2023-05-02T04:10:00.014Z,76.24
2023-05-02T04:12:29.738Z,75.45
2023-05-02T04:15:05.564Z,74.46
2023-05-02T04:17:35.036Z,74.03
2023-05-02T04:20:08.096Z,73.28
2023-05-02T04:22:41.232Z,72.90
2023-05-02T04:27:51.656Z,72.11
2023-05-02T04:30:24.531Z,71.41
2023-05-02T04:33:03.202Z,69.98
2023-05-02T04:35:53.161Z,67.80
2023-05-02T04:38:24.615Z,65.48
2023-05-02T04:40:54.639Z,64.70
2023-05-02T04:43:32.508Z,62.52
2023-05-02T04:46:04.573Z,61.12
2023-05-02T04:48:41.611Z,60.96
2023-05-02T04:51:14.882Z,60.32
2023-05-02T04:53:47.722Z,60.86
2023-05-02T04:56:17.549Z,61.30
2023-05-02T04:58:46.746Z,60.97
2023-05-02T05:01:21.243Z,60.91
2023-05-02T05:03:50.958Z,59.64
2023-05-02T05:06:24.379Z,58.81
2023-05-02T05:08:55.043Z,59.47
2023-05-02T05:11:29.451Z,60.00
2023-05-02T05:14:16.397Z,58.93
2023-05-02T05:16:49.306Z,59.94
2023-05-02T05:19:19.266Z,59.22
2023-05-02T05:21:50.668Z,58.40
2023-05-02T05:24:21.871Z,58.91
2023-05-02T05:26:53.063Z,57.80
2023-05-02T05:29:22.515Z,56.20
2023-05-02T05:31:51.812Z,56.64
2023-05-02T05:34:24.827Z,57.17
2023-05-02T05:36:58.192Z,57.08
2023-05-02T05:39:32.679Z,56.76
2023-05-02T05:42:03.550Z,55.50
2023-05-02T05:44:39.009Z,53.16
2023-05-02T05:47:21.487Z,53.99
2023-05-02T05:49:55.130Z,53.94
2023-05-02T05:52:36.936Z,53.36
2023-05-02T05:55:07.670Z,53.78
2023-05-02T05:57:37.069Z,52.44
2023-05-02T06:00:10.349Z,51.26
2023-05-02T06:02:46.667Z,51.53
2023-05-02T06:05:24.250Z,51.88
2023-05-02T06:07:56.992Z,50.86
2023-05-02T06:13:06.471Z,50.03
2023-05-02T06:15:39.076Z,49.82
2023-05-02T06:18:09.286Z,49.55
2023-05-02T06:20:45.957Z,48.87
2023-05-02T06:23:17.788Z,48.46
2023-05-02T06:25:51.722Z,49.59
2023-05-02T06:28:21.106Z,49.28
2023-05-02T06:30:59.713Z,48.51
2023-05-02T06:33:29.229Z,48.19
2023-05-02T06:35:59.958Z,47.72
2023-05-02T06:38:47.562Z,47.87
2023-05-02T06:41:18.696Z,48.13
2023-05-02T06:43:53.045Z,47.94
2023-05-02T06:46:22.260Z,48.63
2023-05-02T06:48:51.468Z,47.17
2023-05-02T06:51:27.433Z,44.41
2023-05-02T06:53:58.768Z,44.35
2023-05-02T06:56:28.357Z,44.85
2023-05-02T06:59:12.519Z,45.24
2023-05-02T07:01:42.081Z,45.05
2023-05-02T07:04:11.486Z,45.26
2023-05-02T07:06:40.926Z,45.59
2023-05-02T07:09:17.316Z,45.85
2023-05-02T07:11:46.825Z,44.08
2023-05-02T07:14:16.436Z,44.26
2023-05-02T07:16:46.245Z,44.35
2023-05-02T07:19:15.646Z,43.87
2023-05-02T07:21:44.961Z,43.45
2023-05-02T07:24:19.210Z,42.58
2023-05-02T07:26:50.783Z,42.84
2023-05-02T07:29:20.157Z,43.31
2023-05-02T07:31:49.361Z,42.86
2023-05-02T07:34:18.711Z,41.98
2023-05-02T07:36:47.975Z,42.32
2023-05-02T07:39:19.252Z,41.82
2023-05-02T07:41:48.832Z,41.98
2023-05-02T07:44:18.122Z,42.09
2023-05-02T07:46:47.504Z,42.42
2023-05-02T07:49:16.802Z,42.78
2023-05-02T07:51:58.451Z,42.61
2023-05-02T07:54:29.725Z,42.40
2023-05-02T07:57:02.561Z,41.68
2023-05-02T08:02:07.860Z,39.86
2023-05-02T08:04:37.650Z,40.06
2023-05-02T08:09:48.787Z,40.30
2023-05-02T08:12:23.976Z,39.13
2023-05-02T08:14:53.229Z,40.09
2023-05-02T08:17:22.839Z,39.49
2023-05-02T08:20:02.693Z,39.01
2023-05-02T08:22:40.658Z,39.63
2023-05-02T08:25:12.205Z,39.49
2023-05-02T08:27:42.496Z,39.93
2023-05-02T08:30:12.302Z,40.26
2023-05-02T08:32:47.125Z,39.22
2023-05-02T08:37:56.920Z,38.79
2023-05-02T08:40:40.791Z,38.73
2023-05-02T08:43:12.934Z,38.44
2023-05-02T08:45:44.159Z,38.19
2023-05-02T08:48:21.447Z,37.91
2023-05-02T08:50:52.117Z,38.36
2023-05-02T08:53:30.406Z,37.84
2023-05-02T08:56:01.861Z,37.66
2023-05-02T08:58:31.893Z,37.34
2023-05-02T09:01:04.261Z,36.95
2023-05-02T09:03:35.769Z,36.95
2023-05-02T09:06:09.111Z,37.14
2023-05-02T09:08:40.079Z,37.29
2023-05-02T09:11:12.291Z,37.40
2023-05-02T09:13:43.250Z,36.50
2023-05-02T09:16:14.986Z,36.48
2023-05-02T09:18:50.511Z,35.83
2023-05-02T09:21:32.089Z,34.55
2023-05-02T09:24:06.159Z,33.71
2023-05-02T09:26:37.701Z,34.00
2023-05-02T09:29:07.289Z,33.60
2023-05-02T09:34:18.651Z,33.92
2023-05-02T09:36:50.462Z,33.50
2023-05-02T09:39:23.812Z,33.96
2023-05-02T09:42:08.134Z,33.87
2023-05-02T09:44:40.936Z,33.45
2023-05-02T09:47:10.932Z,33.96
2023-05-02T09:49:44.655Z,33.68
2023-05-02T09:52:14.914Z,34.39
2023-05-02T09:54:50.366Z,34.07
2023-05-02T09:57:22.970Z,34.57
2023-05-02T09:59:58.972Z,34.65
2023-05-02T10:02:34.510Z,34.22
2023-05-02T10:05:10.716Z,33.67
2023-05-02T10:07:41.021Z,33.37
2023-05-02T10:10:20.849Z,32.83
2023-05-02T10:12:54.724Z,32.92
2023-05-02T10:15:25.322Z,32.56
2023-05-02T10:17:58.539Z,32.42
2023-05-02T10:20:33.570Z,33.09
2023-05-02T10:23:03.481Z,33.22
2023-05-02T10:25:33.238Z,33.68
2023-05-02T10:28:05.828Z,33.75
2023-05-02T10:30:37.341Z,33.98
2023-05-02T10:33:06.976Z,33.98
2023-05-02T10:35:47.161Z,33.91
2023-05-02T10:38:24.763Z,33.61
2023-05-02T10:40:56.362Z,32.29
2023-05-02T10:43:33.057Z,32.80
2023-05-02T10:46:03.150Z,33.09
2023-05-02T10:48:32.826Z,32.05
2023-05-02T10:51:03.527Z,32.01
2023-05-02T10:53:36.208Z,32.57
2023-05-02T10:56:21.118Z,32.72
2023-05-02T10:58:53.950Z,32.73
2023-05-02T11:04:23.142Z,32.71
2023-05-02T11:07:24.750Z,32.65
2023-05-02T11:09:54.410Z,33.00
2023-05-02T11:12:48.913Z,33.10
2023-05-02T11:15:55.293Z,33.65
2023-05-02T11:18:24.701Z,32.79
2023-05-02T11:20:53.947Z,32.96
2023-05-02T11:23:27.840Z,32.80
2023-05-02T11:26:00.184Z,32.39
2023-05-02T11:28:48.023Z,31.65
2023-05-02T11:31:53.852Z,32.01
2023-05-02T11:34:31.108Z,31.86
2023-05-02T11:37:00.597Z,32.40
2023-05-02T11:39:29.865Z,31.46
2023-05-02T11:42:04.169Z,32.10
2023-05-02T11:44:33.369Z,31.25
2023-05-02T11:47:04.244Z,31.51
2023-05-02T11:49:35.544Z,31.13
2023-05-02T11:52:09.910Z,31.45
2023-05-02T11:54:39.390Z,31.35
2023-05-02T11:57:08.763Z,31.05
2023-05-02T11:59:52.547Z,31.35
2023-05-02T12:02:22.963Z,30.91
2023-05-02T12:04:59.515Z,30.87
2023-05-02T12:07:39.771Z,31.08
2023-05-02T12:10:11.121Z,31.04
2023-05-02T12:12:41.389Z,31.43
2023-05-02T12:15:12.856Z,31.14
2023-05-02T12:17:54.274Z,31.17
2023-05-02T12:20:25.822Z,31.02
2023-05-02T12:22:55.331Z,31.19
2023-05-02T12:25:24.516Z,31.13
2023-05-02T12:28:04.131Z,30.57
2023-05-02T12:30:41.570Z,30.68
2023-05-02T12:33:11.227Z,30.85
2023-05-02T12:35:42.552Z,31.97
2023-05-02T12:38:19.417Z,31.34
2023-05-02T12:40:59.676Z,30.05
2023-05-02T12:43:29.045Z,30.62
2023-05-02T12:52:00.520Z,31.24
2023-05-02T12:54:29.886Z,31.55
2023-05-02T12:56:59.181Z,31.05
2023-05-02T12:59:34.280Z,31.12
2023-05-02T13:02:15.045Z,30.84
2023-05-02T13:04:44.576Z,31.58
2023-05-02T13:07:15.665Z,30.66
2023-05-02T13:09:45.082Z,31.06
2023-05-02T13:12:14.655Z,30.98
2023-05-02T13:14:44.811Z,31.10
2023-05-02T13:17:14.957Z,30.62
2023-05-02T13:19:47.676Z,31.16
2023-05-02T13:22:22.165Z,31.22
2023-05-02T13:24:51.645Z,31.03
2023-05-02T13:27:20.866Z,30.48
2023-05-02T13:29:51.748Z,30.36
2023-05-02T13:32:21.436Z,30.71
2023-05-02T13:34:50.729Z,30.34
2023-05-02T13:37:22.129Z,30.27
2023-05-02T13:39:51.506Z,30.25
2023-05-02T13:42:20.764Z,29.94
2023-05-02T13:44:50.241Z,30.33
2023-05-02T13:47:19.386Z,30.57
2023-05-02T13:49:48.720Z,31.06
2023-05-02T13:52:18.070Z,31.26
2023-05-02T13:54:49.643Z,31.09
2023-05-02T13:57:19.210Z,32.13
2023-05-02T13:59:48.247Z,31.83
2023-05-02T14:02:22.841Z,31.37
2023-05-02T14:04:52.279Z,31.35
2023-05-02T14:07:21.652Z,31.89
2023-05-02T14:09:52.852Z,31.61
2023-05-02T14:12:22.169Z,31.71
2023-05-02T14:14:51.435Z,31.67
2023-05-02T14:17:21.079Z,31.92
2023-05-02T14:19:50.353Z,32.14
2023-05-02T14:22:19.628Z,31.88
2023-05-02T14:24:53.840Z,32.27
2023-05-02T14:27:25.487Z,32.33
2023-05-02T14:29:55.018Z,32.59
2023-05-02T14:32:24.192Z,32.21
2023-05-02T14:34:53.872Z,32.39
2023-05-02T14:37:23.171Z,32.57
2023-05-02T14:39:55.814Z,32.75
2023-05-02T14:42:27.827Z,33.09
2023-05-02T14:44:59.521Z,32.99
2023-05-02T14:47:35.144Z,32.73
2023-05-02T14:50:05.383Z,32.64
2023-05-02T14:52:35.323Z,32.59
2023-05-02T14:55:05.061Z,32.85
2023-05-02T14:57:41.250Z,32.67
2023-05-02T15:00:11.877Z,33.02
2023-05-02T15:02:46.479Z,33.13
2023-05-02T15:05:15.912Z,32.80
2023-05-02T15:07:51.672Z,33.06
2023-05-02T15:10:20.943Z,33.47
2023-05-02T15:12:57.789Z,33.07
2023-05-02T15:15:27.353Z,32.64
2023-05-02T15:17:56.868Z,32.83
2023-05-02T15:20:26.504Z,32.90
2023-05-02T15:22:56.227Z,32.68
2023-05-02T15:25:25.666Z,33.00
2023-05-02T15:28:01.928Z,32.81
2023-05-02T15:30:31.376Z,33.57
2023-05-02T15:33:00.811Z,33.41
2023-05-02T15:35:31.230Z,33.32
2023-05-02T15:38:03.729Z,33.59
2023-05-02T15:40:38.361Z,33.86
2023-05-02T15:43:09.761Z,34.04
2023-05-02T15:45:39.714Z,34.32
2023-05-02T15:48:08.979Z,34.60
2023-05-02T15:50:38.221Z,34.92
2023-05-02T15:53:07.411Z,35.98
2023-05-02T15:55:37.540Z,35.73
2023-05-02T15:58:06.750Z,36.27
2023-05-02T16:00:38.139Z,35.94
2023-05-02T16:03:07.925Z,36.45
2023-05-02T16:05:50.194Z,36.43
2023-05-02T16:08:19.608Z,36.76
2023-05-02T16:10:49.404Z,37.34
2023-05-02T16:13:18.873Z,37.97
2023-05-02T16:15:51.725Z,37.80
2023-05-02T16:18:22.875Z,37.41
2023-05-02T16:20:52.568Z,36.97
2023-05-02T16:23:21.956Z,36.81
2023-05-02T16:25:51.542Z,35.25
2023-05-02T16:28:20.695Z,34.88
2023-05-02T16:31:10.679Z,34.66
2023-05-02T16:33:40.238Z,35.01
2023-05-02T16:36:09.951Z,35.75
2023-05-02T16:38:39.404Z,37.05
2023-05-02T16:41:09.858Z,36.94
2023-05-02T16:43:39.674Z,37.23
2023-05-02T16:46:10.840Z,37.08
2023-05-02T16:48:40.364Z,36.44
2023-05-02T16:51:09.599Z,37.01
2023-05-02T16:53:50.882Z,37.02
2023-05-02T16:56:20.135Z,37.39
2023-05-02T16:58:49.365Z,38.01
2023-05-02T17:01:21.029Z,38.61
2023-05-02T17:03:50.451Z,38.90
2023-05-02T17:06:19.730Z,40.07
2023-05-02T17:08:49.224Z,39.64
2023-05-02T17:11:20.870Z,40.10
2023-05-02T17:13:50.822Z,39.96
2023-05-02T17:16:27.043Z,41.22
2023-05-02T17:18:56.382Z,40.99
2023-05-02T17:21:25.946Z,41.45
2023-05-02T17:26:31.966Z,40.91
2023-05-02T17:29:01.173Z,40.82
2023-05-02T17:31:32.540Z,40.95
2023-05-02T17:34:01.946Z,40.99
2023-05-02T17:36:32.114Z,40.98
2023-05-02T17:39:01.829Z,41.42
2023-05-02T17:41:31.649Z,41.04
2023-05-02T17:44:06.805Z,41.62
2023-05-02T17:46:38.166Z,41.80
2023-05-02T17:49:12.834Z,41.96
2023-05-02T17:51:42.186Z,42.19
2023-05-02T17:54:11.454Z,42.78
2023-05-02T17:56:40.832Z,43.15
2023-05-02T17:59:11.379Z,43.54
2023-05-02T18:01:42.901Z,43.40
2023-05-02T18:04:12.349Z,43.20
2023-05-02T18:06:41.626Z,43.02
2023-05-02T18:09:16.023Z,43.64
2023-05-02T18:11:50.373Z,44.72
2023-05-02T18:14:19.860Z,44.41
2023-05-02T18:16:51.410Z,45.13
2023-05-02T18:19:22.685Z,44.81
2023-05-02T18:21:52.261Z,44.76
2023-05-02T18:24:21.515Z,44.83
2023-05-02T18:29:31.508Z,44.68
2023-05-02T18:32:07.673Z,44.90
2023-05-02T18:34:39.045Z,45.20
2023-05-02T18:37:09.517Z,45.27
2023-05-02T18:39:51.054Z,46.00
2023-05-02T18:42:20.586Z,46.15
2023-05-02T18:44:49.834Z,46.00
2023-05-02T18:47:21.651Z,46.10
2023-05-02T18:49:50.647Z,45.91
2023-05-02T18:52:19.837Z,45.97
2023-05-02T18:54:49.428Z,46.27
2023-05-02T18:57:18.776Z,45.74
2023-05-02T18:59:48.020Z,45.86
2023-05-02T19:02:24.466Z,46.23
2023-05-02T19:04:54.368Z,46.20
2023-05-02T19:07:23.733Z,46.53
2023-05-02T19:09:59.635Z,46.39
2023-05-02T19:12:34.021Z,46.24
2023-05-02T19:15:09.717Z,45.92
2023-05-02T19:17:41.131Z,46.12
2023-05-02T19:20:14.066Z,46.80
2023-05-02T19:22:45.749Z,46.94
2023-05-02T19:25:15.472Z,46.96
2023-05-02T19:27:47.319Z,47.60
2023-05-02T19:30:17.880Z,47.81
2023-05-02T19:32:49.394Z,47.89
2023-05-02T19:35:24.180Z,47.55
2023-05-02T19:37:53.579Z,47.96
2023-05-02T19:40:22.753Z,48.08
2023-05-02T19:42:52.279Z,48.47
2023-05-02T19:45:26.526Z,49.04
2023-05-02T19:47:58.577Z,49.01
2023-05-02T19:50:28.549Z,49.05
2023-05-02T19:52:57.732Z,48.98
2023-05-02T19:55:37.263Z,49.41
2023-05-02T19:58:06.819Z,49.27
2023-05-02T20:00:36.157Z,49.30
2023-05-02T20:03:07.738Z,49.56
2023-05-02T20:05:58.012Z,49.97
2023-05-02T20:08:33.631Z,49.57
2023-05-02T20:11:03.316Z,49.82
2023-05-02T20:13:32.586Z,49.60
2023-05-02T20:16:07.177Z,49.37
2023-05-02T20:18:38.591Z,49.54
2023-05-02T20:21:08.015Z,49.85
2023-05-02T20:23:53.615Z,49.68
2023-05-02T20:26:23.165Z,49.50
2023-05-02T20:28:58.392Z,49.45
2023-05-02T20:31:28.182Z,49.91
2023-05-02T20:34:00.375Z,50.23
2023-05-02T20:36:35.239Z,50.21
2023-05-02T20:39:10.014Z,50.03
2023-05-02T20:41:39.616Z,50.69
2023-05-02T20:44:09.073Z,51.03
2023-05-02T20:46:38.998Z,51.90
2023-05-02T20:49:10.348Z,51.95
2023-05-02T20:51:39.787Z,52.08
2023-05-02T20:54:08.988Z,51.88
2023-05-02T20:56:38.283Z,52.31
2023-05-02T20:59:07.549Z,52.24
2023-05-02T21:01:37.180Z,52.33
2023-05-02T21:04:06.931Z,52.72
2023-05-02T21:06:38.602Z,52.47
2023-05-02T21:11:53.740Z,52.44
2023-05-02T21:14:26.080Z,52.55
2023-05-02T21:16:55.818Z,52.22
2023-05-02T21:19:25.120Z,52.29
2023-05-02T21:22:12.533Z,52.30
2023-05-02T21:24:47.714Z,51.99
2023-05-02T21:27:17.196Z,51.37
2023-05-02T21:29:46.494Z,51.69
2023-05-02T21:32:16.520Z,51.27
2023-05-02T21:34:45.762Z,51.35
2023-05-02T21:37:15.157Z,51.60
2023-05-02T21:39:55.216Z,51.79
2023-05-02T21:42:29.697Z,51.79
2023-05-02T21:44:59.210Z,51.91
2023-05-02T21:47:28.524Z,51.99
2023-05-02T21:49:58.418Z,52.34
2023-05-02T21:52:39.029Z,52.10
2023-05-02T21:55:10.974Z,52.27
2023-05-02T21:57:40.303Z,52.41
2023-05-02T22:00:13.266Z,52.70
2023-05-02T22:02:48.393Z,52.66
2023-05-02T22:05:18.492Z,52.65
2023-05-02T22:07:51.955Z,53.14
2023-05-02T22:10:23.504Z,53.56
2023-05-02T22:12:52.929Z,53.60
2023-05-02T22:15:23.258Z,53.44
2023-05-02T22:18:11.581Z,53.86
2023-05-02T22:20:41.686Z,53.76
2023-05-02T22:23:11.068Z,54.22
2023-05-02T22:25:48.179Z,54.53
2023-05-02T22:28:22.688Z,54.65
2023-05-02T22:33:27.047Z,54.83
2023-05-02T22:36:01.337Z,54.92
2023-05-02T22:38:30.801Z,54.82
2023-05-02T22:41:02.853Z,54.62
2023-05-02T22:43:37.786Z,54.54
2023-05-02T22:46:07.136Z,54.72
2023-05-02T22:48:36.620Z,54.32
2023-05-02T22:51:06.512Z,54.04
2023-05-02T22:53:35.978Z,54.40
2023-05-02T22:56:08.276Z,54.86
2023-05-02T22:58:37.649Z,54.57
2023-05-02T23:01:06.998Z,54.33
2023-05-02T23:06:28.836Z,54.88
2023-05-02T23:08:58.492Z,54.65
2023-05-02T23:11:29.798Z,54.91
2023-05-02T23:13:59.261Z,54.80
2023-05-02T23:16:28.545Z,55.06
2023-05-02T23:19:03.369Z,55.29
2023-05-02T23:21:32.621Z,55.28
2023-05-02T23:24:01.875Z,54.84
2023-05-02T23:26:38.208Z,55.14
2023-05-02T23:29:07.562Z,55.24
2023-05-02T23:31:47.294Z,55.72
2023-05-02T23:34:16.696Z,55.11
2023-05-02T23:36:45.854Z,55.05
2023-05-02T23:39:15.397Z,55.13
2023-05-02T23:41:46.694Z,56.01
2023-05-02T23:44:16.403Z,55.23
2023-05-02T23:46:46.358Z,55.61
2023-05-02T23:49:27.590Z,55.96
2023-05-02T23:51:56.914Z,55.91
2023-05-02T23:54:26.265Z,55.80
2023-05-02T23:57:03.337Z,55.80
2023-05-02T23:59:32.656Z,55.68
